createdAt,value
2023-04-19T00:00:08.172Z,6.40
2023-04-19T00:02:54.285Z,6.33
2023-04-19T00:05:41.035Z,6.35
2023-04-19T00:08:26.644Z,6.34
2023-04-19T00:11:12.128Z,6.27
2023-04-19T00:13:57.657Z,6.32
2023-04-19T00:16:43.045Z,6.23
2023-04-19T00:19:28.858Z,6.22
2023-04-19T00:22:14.285Z,6.18
2023-04-19T00:25:00.211Z,6.15
2023-04-19T00:27:45.702Z,6.10
2023-04-19T00:30:31.290Z,6.13
2023-04-19T00:33:16.824Z,6.09
2023-04-19T00:36:02.919Z,6.05
2023-04-19T00:38:48.561Z,6.10
2023-04-19T00:41:33.729Z,6.04
2023-04-19T00:44:19.497Z,5.96
2023-04-19T00:47:05.416Z,5.95
2023-04-19T00:49:51.152Z,5.88
2023-04-19T00:52:36.909Z,5.88
2023-04-19T00:55:23.704Z,5.82
2023-04-19T00:58:09.715Z,5.80
2023-04-19T01:00:55.327Z,5.72
2023-04-19T01:03:41.060Z,5.69
2023-04-19T01:06:30.138Z,5.63
2023-04-19T01:09:15.648Z,5.58
2023-04-19T01:12:02.229Z,5.55
2023-04-19T01:14:47.577Z,5.56
2023-04-19T01:17:33.261Z,5.50
2023-04-19T01:20:18.850Z,5.43
2023-04-19T01:23:04.547Z,5.48
2023-04-19T01:25:50.144Z,5.48
2023-04-19T01:28:36.015Z,5.46
2023-04-19T01:31:21.617Z,5.45
2023-04-19T01:34:07.231Z,5.39
2023-04-19T01:36:52.828Z,5.41
2023-04-19T01:39:38.252Z,5.39
2023-04-19T01:42:23.623Z,5.42
2023-04-19T01:45:09.544Z,5.35
2023-04-19T01:47:55.986Z,5.33
2023-04-19T01:50:41.864Z,5.33
2023-04-19T01:53:27.427Z,5.29
2023-04-19T01:56:13.031Z,5.18
2023-04-19T01:58:58.548Z,5.20
2023-04-19T02:06:41.899Z,5.10
2023-04-19T02:09:27.325Z,5.10
2023-04-19T02:12:12.876Z,5.04
2023-04-19T02:14:59.535Z,5.05
2023-04-19T02:17:47.008Z,5.08
2023-04-19T02:20:32.503Z,5.16
2023-04-19T02:23:17.899Z,5.03
2023-04-19T02:26:03.684Z,5.14
2023-04-19T02:28:51.430Z,5.06
2023-04-19T02:31:36.896Z,5.07
2023-04-19T02:34:22.208Z,5.04
2023-04-19T02:37:07.602Z,4.99
2023-04-19T02:39:53.603Z,5.00
2023-04-19T02:42:39.267Z,4.94
2023-04-19T02:45:25.839Z,4.95
2023-04-19T02:48:11.260Z,4.88
2023-04-19T02:50:56.781Z,4.88
2023-04-19T02:53:42.708Z,4.80
2023-04-19T02:56:29.951Z,4.80
2023-04-19T02:59:15.617Z,4.83
2023-04-19T03:02:03.963Z,4.76
2023-04-19T03:04:49.350Z,4.75
2023-04-19T03:07:34.737Z,4.79
2023-04-19T03:10:20.548Z,4.73
2023-04-19T03:13:05.833Z,4.74
2023-04-19T03:15:51.651Z,4.60
2023-04-19T03:18:37.206Z,4.67
2023-04-19T03:21:26.990Z,4.71
2023-04-19T03:24:12.869Z,4.81
2023-04-19T03:26:58.695Z,4.75
2023-04-19T03:29:44.344Z,4.76
2023-04-19T03:32:29.905Z,4.71
2023-04-19T03:35:15.677Z,4.67
2023-04-19T03:38:01.226Z,4.77
2023-04-19T03:40:47.040Z,4.70
2023-04-19T03:43:32.711Z,4.65
2023-04-19T03:46:18.481Z,4.59
2023-04-19T03:49:03.873Z,4.60
2023-04-19T03:51:49.670Z,4.53
2023-04-19T03:54:35.160Z,4.60
2023-04-19T03:57:20.964Z,4.48
2023-04-19T04:00:09.558Z,4.44
2023-04-19T04:02:55.088Z,4.43
2023-04-19T04:05:40.901Z,4.32
2023-04-19T04:08:26.460Z,4.38
2023-04-19T04:11:12.022Z,4.36
2023-04-19T04:13:57.767Z,4.41
2023-04-19T04:16:43.425Z,4.43
2023-04-19T04:19:29.004Z,4.44
2023-04-19T04:22:14.271Z,4.45
2023-04-19T04:25:01.315Z,4.45
2023-04-19T04:27:47.599Z,4.52
2023-04-19T04:30:34.250Z,4.52
2023-04-19T04:33:19.861Z,4.64
2023-04-19T04:36:07.176Z,4.73
2023-04-19T04:38:54.246Z,4.91
2023-04-19T04:41:42.038Z,4.97
2023-04-19T04:47:13.610Z,5.00
2023-04-19T04:49:59.924Z,5.07
2023-04-19T04:52:45.329Z,5.14
2023-04-19T04:55:30.706Z,5.34
2023-04-19T04:58:16.875Z,5.36
2023-04-19T05:01:04.048Z,5.50
2023-04-19T05:03:50.561Z,5.58
2023-04-19T05:06:36.262Z,5.59
2023-04-19T05:09:22.036Z,5.70
2023-04-19T05:12:07.681Z,5.71
2023-04-19T05:14:53.516Z,5.82
2023-04-19T05:17:39.078Z,5.85
2023-04-19T05:20:25.909Z,5.92
2023-04-19T05:23:11.473Z,6.06
2023-04-19T05:25:56.711Z,6.14
2023-04-19T05:28:43.494Z,6.08
2023-04-19T05:31:29.352Z,6.19
2023-04-19T05:34:15.033Z,6.28
2023-04-19T05:37:00.822Z,6.34
2023-04-19T05:39:46.121Z,6.37
2023-04-19T05:42:31.983Z,6.50
2023-04-19T05:45:18.883Z,7.07
2023-04-19T05:48:04.996Z,8.09
2023-04-19T05:50:52.354Z,8.69
2023-04-19T05:53:37.988Z,9.16
2023-04-19T05:56:23.607Z,9.62
2023-04-19T05:59:11.338Z,9.88
2023-04-19T06:01:57.079Z,10.34
2023-04-19T06:04:43.539Z,10.51
2023-04-19T06:07:34.102Z,10.49
2023-04-19T06:10:19.705Z,10.99
2023-04-19T06:13:05.670Z,10.99
2023-04-19T06:15:51.300Z,10.93
2023-04-19T06:18:37.057Z,10.92
2023-04-19T06:21:22.232Z,11.40
2023-04-19T06:24:07.876Z,11.53
2023-04-19T06:26:53.351Z,11.32
2023-04-19T06:29:38.728Z,12.08
2023-04-19T06:32:25.844Z,12.55
2023-04-19T06:35:11.377Z,12.93
2023-04-19T06:37:56.792Z,13.20
2023-04-19T06:40:42.096Z,13.54
2023-04-19T06:43:27.420Z,13.84
2023-04-19T06:46:14.400Z,14.02
2023-04-19T06:48:59.907Z,13.57
2023-04-19T06:51:45.520Z,14.66
2023-04-19T06:54:31.045Z,14.70
2023-04-19T06:57:17.494Z,14.73
2023-04-19T07:00:05.286Z,15.14
2023-04-19T07:02:51.024Z,14.83
2023-04-19T07:05:36.422Z,15.08
2023-04-19T07:08:24.984Z,15.59
2023-04-19T07:11:11.910Z,16.70
2023-04-19T07:13:58.128Z,16.08
2023-04-19T07:16:43.716Z,16.08
2023-04-19T07:19:29.170Z,16.47
2023-04-19T07:22:15.308Z,16.54
2023-04-19T07:25:00.746Z,17.15
2023-04-19T07:27:47.210Z,18.05
2023-04-19T07:30:33.535Z,19.02
2023-04-19T07:33:19.050Z,18.99
2023-04-19T07:36:04.407Z,19.53
2023-04-19T07:38:49.906Z,19.60
2023-04-19T07:41:36.303Z,19.96
2023-04-19T07:44:22.490Z,20.44
2023-04-19T07:47:07.746Z,20.68
2023-04-19T07:49:53.549Z,20.94
2023-04-19T07:52:39.601Z,21.14
2023-04-19T07:55:24.983Z,19.75
2023-04-19T07:58:12.115Z,20.64
2023-04-19T08:00:57.446Z,20.97
2023-04-19T08:03:42.844Z,21.60
2023-04-19T08:06:30.486Z,21.20
2023-04-19T08:09:16.032Z,21.21
2023-04-19T08:12:01.385Z,20.40
2023-04-19T08:14:59.419Z,20.27
2023-04-19T08:17:50.750Z,19.90
2023-04-19T08:20:36.697Z,20.13
2023-04-19T08:23:25.986Z,20.80
2023-04-19T08:26:14.923Z,20.73
2023-04-19T08:29:00.552Z,21.37
2023-04-19T08:31:46.452Z,21.87
2023-04-19T08:34:34.471Z,22.89
2023-04-19T08:37:20.076Z,23.03
2023-04-19T08:40:06.400Z,23.03
2023-04-19T08:42:51.936Z,22.95
2023-04-19T08:45:38.306Z,23.67
2023-04-19T08:48:24.722Z,23.26
2023-04-19T08:51:12.550Z,23.75
2023-04-19T08:53:59.381Z,22.50
2023-04-19T08:56:44.830Z,22.18
2023-04-19T08:59:32.762Z,22.71
2023-04-19T09:02:18.256Z,22.89
2023-04-19T09:05:03.996Z,23.20
2023-04-19T09:07:50.020Z,23.58
2023-04-19T09:10:35.347Z,23.53
2023-04-19T09:13:20.614Z,23.58
2023-04-19T09:16:07.904Z,23.06
2023-04-19T09:19:02.497Z,23.75
2023-04-19T09:21:57.308Z,23.01
2023-04-19T09:27:33.390Z,24.32
2023-04-19T09:30:32.533Z,24.35
2023-04-19T09:33:42.074Z,24.60
2023-04-19T09:36:30.659Z,24.81
2023-04-19T09:39:32.638Z,23.92
2023-04-19T09:42:32.831Z,24.70
2023-04-19T09:45:30.494Z,25.57
2023-04-19T09:48:16.903Z,25.19
2023-04-19T09:51:07.449Z,24.83
2023-04-19T09:53:55.959Z,23.69
2023-04-19T09:56:41.608Z,24.38
2023-04-19T09:59:26.916Z,25.72
2023-04-19T10:02:14.355Z,26.02
2023-04-19T10:05:16.235Z,25.92
2023-04-19T10:08:07.788Z,25.71
2023-04-19T10:10:55.286Z,27.02
2023-04-19T10:13:41.431Z,27.72
2023-04-19T10:16:27.388Z,27.93
2023-04-19T10:19:16.093Z,27.33
2023-04-19T10:22:05.304Z,27.44
2023-04-19T10:25:13.460Z,27.51
2023-04-19T10:27:59.083Z,27.77
2023-04-19T10:31:01.766Z,26.97
2023-04-19T10:33:47.820Z,27.76
2023-04-19T10:36:33.652Z,28.94
2023-04-19T10:39:41.261Z,30.15
2023-04-19T10:43:09.666Z,30.06
2023-04-19T10:45:59.081Z,28.71
2023-04-19T10:48:54.851Z,29.09
2023-04-19T10:51:47.334Z,29.87
2023-04-19T10:54:35.692Z,30.47
2023-04-19T10:57:21.067Z,26.27
2023-04-19T11:00:22.599Z,26.80
2023-04-19T11:03:45.025Z,28.65
2023-04-19T11:06:31.474Z,29.44
2023-04-19T11:09:28.577Z,28.29
2023-04-19T11:12:18.929Z,29.97
2023-04-19T11:15:09.317Z,29.38
2023-04-19T11:18:08.960Z,27.92
2023-04-19T11:20:57.891Z,27.22
2023-04-19T11:23:43.506Z,27.70
2023-04-19T11:26:29.078Z,26.90
2023-04-19T11:29:15.344Z,27.90
2023-04-19T11:32:00.861Z,28.33
2023-04-19T11:34:46.542Z,28.49
2023-04-19T11:37:36.480Z,28.48
2023-04-19T11:40:23.280Z,27.72
2023-04-19T11:43:08.944Z,28.39
2023-04-19T11:45:55.586Z,30.18
2023-04-19T11:48:54.516Z,30.94
2023-04-19T11:51:43.370Z,30.47
2023-04-19T11:54:28.750Z,28.72
2023-04-19T11:57:14.136Z,28.84
2023-04-19T12:00:07.234Z,30.08
2023-04-19T12:02:53.687Z,29.09
2023-04-19T12:05:39.206Z,26.36
2023-04-19T12:08:32.509Z,27.30
2023-04-19T12:11:21.481Z,28.59
2023-04-19T12:14:13.353Z,30.44
2023-04-19T12:17:12.055Z,28.44
2023-04-19T12:19:57.335Z,24.19
2023-04-19T12:22:43.616Z,21.36
2023-04-19T12:25:33.291Z,20.54
2023-04-19T12:28:18.895Z,20.82
2023-04-19T12:31:04.749Z,24.78
2023-04-19T12:33:50.596Z,27.30
2023-04-19T12:36:36.087Z,23.99
2023-04-19T12:39:21.664Z,21.26
2023-04-19T12:42:06.988Z,23.92
2023-04-19T12:44:52.378Z,26.72
2023-04-19T12:47:37.783Z,27.34
2023-04-19T12:50:23.137Z,24.93
2023-04-19T12:53:09.362Z,22.39
2023-04-19T12:55:55.066Z,25.37
2023-04-19T12:58:40.616Z,28.02
2023-04-19T13:01:25.874Z,26.41
2023-04-19T13:04:12.099Z,25.68
2023-04-19T13:06:58.020Z,24.21
2023-04-19T13:09:43.667Z,25.52
2023-04-19T13:12:29.280Z,26.97
2023-04-19T13:15:14.515Z,28.58
2023-04-19T13:18:00.211Z,27.57
2023-04-19T13:20:46.300Z,26.04
2023-04-19T13:23:31.809Z,28.25
2023-04-19T13:26:17.413Z,28.71
2023-04-19T13:29:02.856Z,26.27
2023-04-19T13:31:49.371Z,22.60
2023-04-19T13:34:36.415Z,21.08
2023-04-19T13:37:21.960Z,24.01
2023-04-19T13:40:18.741Z,26.98
2023-04-19T13:43:05.101Z,27.89
2023-04-19T13:45:50.729Z,24.67
2023-04-19T13:48:35.930Z,22.71
2023-04-19T13:51:21.614Z,22.15
2023-04-19T13:54:06.948Z,21.73
2023-04-19T13:56:52.654Z,20.24
2023-04-19T13:59:38.195Z,19.55
2023-04-19T14:02:23.578Z,19.06
2023-04-19T14:05:09.479Z,21.04
2023-04-19T14:07:55.295Z,22.08
2023-04-19T14:10:41.398Z,23.13
2023-04-19T14:13:26.830Z,22.69
2023-04-19T14:16:12.139Z,24.06
2023-04-19T14:18:57.826Z,24.86
2023-04-19T14:21:43.522Z,24.01
2023-04-19T14:24:29.265Z,22.42
2023-04-19T14:27:14.521Z,20.83
2023-04-19T14:30:00.131Z,20.64
2023-04-19T14:32:45.699Z,22.59
2023-04-19T14:35:31.454Z,23.47
2023-04-19T14:38:16.996Z,23.91
2023-04-19T14:41:03.364Z,24.60
2023-04-19T14:43:49.190Z,25.82
2023-04-19T14:46:34.629Z,26.57
2023-04-19T14:49:20.075Z,25.10
2023-04-19T14:52:05.596Z,25.42
2023-04-19T14:54:51.366Z,26.61
2023-04-19T14:57:36.933Z,26.70
2023-04-19T15:00:22.212Z,25.58
2023-04-19T15:03:08.053Z,24.35
2023-04-19T15:05:53.611Z,23.93
2023-04-19T15:08:40.307Z,24.09
2023-04-19T15:11:25.714Z,23.57
2023-04-19T15:14:11.326Z,24.17
2023-04-19T15:16:57.056Z,24.82
2023-04-19T15:19:42.526Z,25.02
2023-04-19T15:22:28.096Z,24.78
2023-04-19T15:25:13.848Z,23.63
2023-04-19T15:27:59.161Z,23.54
2023-04-19T15:30:44.578Z,23.08
2023-04-19T15:33:30.436Z,23.58
2023-04-19T15:36:16.201Z,23.25
2023-04-19T15:39:01.882Z,22.67
2023-04-19T15:41:47.629Z,22.50
2023-04-19T15:44:33.111Z,22.71
2023-04-19T15:47:18.634Z,22.67
2023-04-19T15:50:04.536Z,22.42
2023-04-19T15:52:49.956Z,22.19
2023-04-19T15:55:35.888Z,22.76
2023-04-19T15:58:21.576Z,22.78
2023-04-19T16:01:10.965Z,22.22
2023-04-19T16:03:56.805Z,21.61
2023-04-19T16:06:42.327Z,20.11
2023-04-19T16:09:27.785Z,18.23
2023-04-19T16:12:13.269Z,17.62
2023-04-19T16:14:58.854Z,17.07
2023-04-19T16:17:44.372Z,16.42
2023-04-19T16:20:29.993Z,15.88
2023-04-19T16:23:16.205Z,15.55
2023-04-19T16:26:01.513Z,15.42
2023-04-19T16:28:47.274Z,15.13
2023-04-19T16:31:32.657Z,14.89
2023-04-19T16:34:19.825Z,14.78
2023-04-19T16:37:05.239Z,14.79
2023-04-19T16:39:51.166Z,15.05
2023-04-19T16:42:38.137Z,15.12
2023-04-19T16:45:23.993Z,14.91
2023-04-19T16:48:09.292Z,14.68
2023-04-19T16:50:55.014Z,14.43
2023-04-19T16:53:40.420Z,14.18
2023-04-19T16:56:25.835Z,13.99
2023-04-19T16:59:11.328Z,13.89
2023-04-19T17:02:00.436Z,13.68
2023-04-19T17:04:47.945Z,13.50
2023-04-19T17:07:33.324Z,13.35
2023-04-19T17:10:18.945Z,13.20
2023-04-19T17:13:04.277Z,13.12
2023-04-19T17:15:50.264Z,13.00
2023-04-19T17:18:35.575Z,13.04
2023-04-19T17:21:21.238Z,12.86
2023-04-19T17:24:06.605Z,12.70
2023-04-19T17:26:52.035Z,12.54
2023-04-19T17:29:37.733Z,12.55
2023-04-19T17:32:23.205Z,12.31
2023-04-19T17:35:08.805Z,12.31
2023-04-19T17:37:54.210Z,12.25
2023-04-19T17:40:39.608Z,12.22
2023-04-19T17:43:27.671Z,12.15
2023-04-19T17:46:13.979Z,12.07
2023-04-19T17:48:59.725Z,11.98
2023-04-19T17:51:45.880Z,11.88
2023-04-19T17:54:31.407Z,11.87
2023-04-19T17:57:16.825Z,11.85
2023-04-19T18:00:06.459Z,11.85
2023-04-19T18:02:51.912Z,11.80
2023-04-19T18:05:40.885Z,11.79
2023-04-19T18:08:26.466Z,11.72
2023-04-19T18:11:12.002Z,11.70
2023-04-19T18:13:57.396Z,11.61
2023-04-19T18:16:42.947Z,11.51
2023-04-19T18:19:28.490Z,11.40
2023-04-19T18:22:13.713Z,11.29
2023-04-19T18:24:59.307Z,11.21
2023-04-19T18:27:44.928Z,11.16
2023-04-19T18:30:30.761Z,11.10
2023-04-19T18:33:16.240Z,11.16
2023-04-19T18:36:01.824Z,11.09
2023-04-19T18:38:47.175Z,10.86
2023-04-19T18:41:32.955Z,10.61
2023-04-19T18:47:06.644Z,10.68
2023-04-19T18:50:04.604Z,10.70
2023-04-19T18:52:50.845Z,10.65
2023-04-19T18:55:36.178Z,10.67
2023-04-19T18:58:22.574Z,10.65
2023-04-19T19:01:08.323Z,10.75
2023-04-19T19:04:10.680Z,10.70
2023-04-19T19:07:07.809Z,10.73
2023-04-19T19:10:03.572Z,10.77
2023-04-19T19:12:55.146Z,10.77
2023-04-19T19:15:41.429Z,10.77
2023-04-19T19:18:29.384Z,10.75
2023-04-19T19:21:14.961Z,10.76
2023-04-19T19:24:00.170Z,10.78
2023-04-19T19:26:45.516Z,10.73
2023-04-19T19:29:30.994Z,10.72
2023-04-19T19:32:16.177Z,10.76
2023-04-19T19:35:06.346Z,10.71
2023-04-19T19:37:53.223Z,10.69
2023-04-19T19:40:59.359Z,10.77
2023-04-19T19:43:45.119Z,10.70
2023-04-19T19:46:31.200Z,10.59
2023-04-19T19:49:18.603Z,10.72
2023-04-19T19:52:04.766Z,10.62
2023-04-19T19:54:50.183Z,10.68
2023-04-19T20:00:44.002Z,10.64
2023-04-19T20:03:37.465Z,10.57
2023-04-19T20:09:11.607Z,10.53
2023-04-19T20:11:56.962Z,10.50
2023-04-19T20:14:42.489Z,10.39
2023-04-19T20:17:28.058Z,10.35
2023-04-19T20:20:14.629Z,10.28
2023-04-19T20:23:00.190Z,10.25
2023-04-19T20:25:46.566Z,10.26
2023-04-19T20:28:31.920Z,10.19
2023-04-19T20:31:17.212Z,10.09
2023-04-19T20:34:02.671Z,10.00
2023-04-19T20:36:48.138Z,10.04
2023-04-19T20:39:33.849Z,9.94
2023-04-19T20:42:19.471Z,9.97
2023-04-19T20:45:09.712Z,9.87
2023-04-19T20:47:55.613Z,9.83
2023-04-19T20:50:41.411Z,9.79
2023-04-19T20:53:27.069Z,9.70
2023-04-19T20:56:12.432Z,9.71
2023-04-19T20:58:58.086Z,9.68
2023-04-19T21:01:43.673Z,9.63
2023-04-19T21:04:29.482Z,9.55
2023-04-19T21:07:15.345Z,9.54
2023-04-19T21:10:00.796Z,9.46
2023-04-19T21:12:46.300Z,9.42
2023-04-19T21:15:31.718Z,9.42
2023-04-19T21:18:17.786Z,9.44
2023-04-19T21:21:03.450Z,9.38
2023-04-19T21:23:48.699Z,9.31
2023-04-19T21:26:34.164Z,9.29
2023-04-19T21:29:20.115Z,9.28
2023-04-19T21:32:05.498Z,9.30
2023-04-19T21:34:50.987Z,9.28
2023-04-19T21:37:37.499Z,9.22
2023-04-19T21:40:23.046Z,9.23
2023-04-19T21:43:08.314Z,9.21
2023-04-19T21:45:53.903Z,9.19
2023-04-19T21:48:39.470Z,9.21
2023-04-19T21:51:25.201Z,9.18
2023-04-19T21:54:14.070Z,9.21
2023-04-19T21:57:03.789Z,9.15
2023-04-19T21:59:49.007Z,9.13
2023-04-19T22:02:34.347Z,9.10
2023-04-19T22:05:19.744Z,9.19
2023-04-19T22:08:05.493Z,9.07
2023-04-19T22:10:51.135Z,9.08
2023-04-19T22:13:37.364Z,9.14
2023-04-19T22:16:22.717Z,9.08
2023-04-19T22:19:08.379Z,8.95
2023-04-19T22:21:55.013Z,8.67
2023-04-19T22:24:53.903Z,8.51
2023-04-19T22:27:43.351Z,8.22
2023-04-19T22:30:28.907Z,7.80
2023-04-19T22:33:14.431Z,7.66
2023-04-19T22:35:59.865Z,7.30
2023-04-19T22:38:45.263Z,7.22
2023-04-19T22:41:32.273Z,7.17
2023-04-19T22:44:18.016Z,7.04
2023-04-19T22:47:03.517Z,7.08
2023-04-19T22:49:49.525Z,7.09
2023-04-19T22:52:35.230Z,7.09
2023-04-19T22:55:20.704Z,7.04
2023-04-19T22:58:06.605Z,7.05
2023-04-19T23:00:52.415Z,7.10
2023-04-19T23:03:37.948Z,7.12
2023-04-19T23:06:23.473Z,7.16
2023-04-19T23:09:10.883Z,7.18
2023-04-19T23:11:58.526Z,7.21
2023-04-19T23:14:43.876Z,7.18
2023-04-19T23:17:29.242Z,7.12
2023-04-19T23:20:15.133Z,7.19
2023-04-19T23:23:00.639Z,7.20
2023-04-19T23:25:46.166Z,7.24
2023-04-19T23:28:31.676Z,7.28
2023-04-19T23:31:16.962Z,7.18
2023-04-19T23:34:02.985Z,7.20
2023-04-19T23:36:48.295Z,7.14
2023-04-19T23:39:33.699Z,7.12
2023-04-19T23:42:19.063Z,7.09
2023-04-19T23:45:05.431Z,7.11
2023-04-19T23:47:50.842Z,7.17
2023-04-19T23:50:36.391Z,7.05
2023-04-19T23:53:22.261Z,7.02
2023-04-19T23:56:08.006Z,7.04
2023-04-19T23:58:53.402Z,6.90
